Time;durP1;ratioP1;P1;durP2;ratioP2;P2;SDS_P1;SDS_P2;PMS_P1;PMS_P2;Temp;Humidity;BMP_temperature;BMP_pressure;BME280_temperature;BME280_humidity;BME280_pressure;Samples;Min_cycle;Max_cycle;Signal;HPM_P1;HPM_P2
2021/03/08 00:01:58;;;;;;;7.77;4.47;;;5.30;99.90;;;;;;4982771;28;20225;-90
2021/03/08 00:04:23;;;;;;;5.43;4.10;;;5.30;99.90;;;;;;4957258;28;20611;-90
2021/03/08 00:06:49;;;;;;;4.87;2.80;;;5.30;99.90;;;;;;4955983;28;20227;-89
2021/03/08 00:09:15;;;;;;;4.77;3.30;;;5.30;99.90;;;;;;4982808;28;20183;-90
2021/03/08 00:11:41;;;;;;;7.90;1.43;;;5.20;99.90;;;;;;4966573;28;20244;-90
2021/03/08 00:14:07;;;;;;;1.17;0.60;;;4.90;99.90;;;;;;4979588;28;20270;-90
2021/03/08 00:16:32;;;;;;;1.03;0.83;;;4.70;99.90;;;;;;4983102;28;20695;-89
2021/03/08 00:18:58;;;;;;;0.57;0.57;;;4.60;99.90;;;;;;4968568;28;20230;-91
2021/03/08 00:21:24;;;;;;;0.70;0.70;;;4.60;99.90;;;;;;4975597;28;20199;-92
2021/03/08 00:23:52;;;;;;;0.57;0.57;;;4.50;99.90;;;;;;5003767;28;20467;-91
2021/03/08 00:26:18;;;;;;;1.70;1.03;;;4.40;99.90;;;;;;4993645;28;20225;-91
2021/03/08 00:28:46;;;;;;;6.17;0.63;;;4.50;99.90;;;;;;5000771;28;20211;-88
2021/03/08 00:31:12;;;;;;;3.40;0.47;;;4.40;99.90;;;;;;4983923;28;20231;-88
2021/03/08 00:33:38;;;;;;;1.37;1.27;;;4.40;99.90;;;;;;4992072;28;20324;-88
2021/03/08 00:36:04;;;;;;;2.20;1.07;;;4.40;99.90;;;;;;4987194;28;20180;-89
2021/03/08 00:38:30;;;;;;;3.00;2.50;;;4.30;99.90;;;;;;4995412;28;20223;-90
2021/03/08 00:40:56;;;;;;;1.17;0.53;;;4.30;99.90;;;;;;4973853;28;20227;-89
2021/03/08 00:43:21;;;;;;;2.40;0.90;;;4.20;99.90;;;;;;5004374;28;20293;-89
2021/03/08 00:45:47;;;;;;;1.60;0.70;;;4.20;99.90;;;;;;5000363;28;20219;-88
2021/03/08 00:48:13;;;;;;;0.57;0.57;;;4.20;99.90;;;;;;5004804;28;20748;-90
2021/03/08 00:50:39;;;;;;;0.27;0.27;;;4.20;99.90;;;;;;5000619;28;20216;-90
2021/03/08 00:53:05;;;;;;;2.67;0.93;;;4.20;99.90;;;;;;5001522;28;20705;-91
2021/03/08 00:55:36;;;;;;;1.80;0.60;;;4.20;99.90;;;;;;4993810;28;20219;-91
2021/03/08 00:58:02;;;;;;;0.40;0.40;;;4.10;99.90;;;;;;4994281;28;20231;-91
2021/03/08 01:00:28;;;;;;;0.43;0.43;;;4.10;99.90;;;;;;4985710;28;20763;-93
2021/03/08 01:02:56;;;;;;;10.77;2.37;;;4.10;99.90;;;;;;4965702;28;20191;-92
2021/03/08 01:05:22;;;;;;;1.57;1.10;;;4.10;99.90;;;;;;4975636;28;20227;-89
2021/03/08 01:07:49;;;;;;;2.17;1.10;;;4.10;99.90;;;;;;4978349;28;20212;-89
2021/03/08 01:10:20;;;;;;;11.77;1.37;;;4.20;99.90;;;;;;4948924;28;20223;-89
2021/03/08 01:12:46;;;;;;;18.87;0.97;;;4.10;99.90;;;;;;4965774;28;20224;-90
2021/03/08 01:15:13;;;;;;;2.40;1.10;;;4.10;99.90;;;;;;4982364;28;20748;-91
2021/03/08 01:17:39;;;;;;;0.30;0.30;;;4.00;99.90;;;;;;4976971;28;20223;-88
2021/03/08 01:20:11;;;;;;;0.60;0.60;;;4.10;99.90;;;;;;4980257;28;20220;-88
2021/03/08 01:22:37;;;;;;;1.13;1.07;;;4.10;99.90;;;;;;4975593;28;20319;-88
2021/03/08 01:25:08;;;;;;;0.30;0.30;;;4.10;99.90;;;;;;4974855;28;20592;-90
2021/03/08 01:27:34;;;;;;;0.30;0.30;;;4.10;99.90;;;;;;4973998;28;20187;-88
2021/03/08 01:29:59;;;;;;;1.20;0.87;;;4.10;99.90;;;;;;4941218;28;20192;-89
2021/03/08 01:32:25;;;;;;;3.60;1.40;;;4.20;99.90;;;;;;4998354;28;20683;-89
2021/03/08 01:34:51;;;;;;;3.80;0.97;;;4.20;99.90;;;;;;4985771;28;20236;-91
2021/03/08 01:37:17;;;;;;;1.03;0.83;;;4.20;99.90;;;;;;4992862;28;20215;-86
2021/03/08 01:39:42;;;;;;;3.03;1.17;;;4.10;99.90;;;;;;4984593;28;20222;-86
2021/03/08 01:42:08;;;;;;;0.90;0.40;;;4.10;99.90;;;;;;4986364;28;20191;-87
2021/03/08 01:44:34;;;;;;;0.97;0.83;;;4.10;99.90;;;;;;4978917;28;20222;-89
2021/03/08 01:47:00;;;;;;;1.70;0.70;;;4.20;99.90;;;;;;4998754;28;20230;-89
2021/03/08 01:49:26;;;;;;;2.47;1.17;;;4.20;99.90;;;;;;4999578;28;20218;-89
2021/03/08 01:51:51;;;;;;;4.63;1.00;;;4.20;99.90;;;;;;4968335;28;21012;-87
2021/03/08 01:54:17;;;;;;;0.80;0.80;;;4.20;99.90;;;;;;4976897;28;20250;-88
2021/03/08 01:56:43;;;;;;;1.27;0.90;;;4.20;99.90;;;;;;4969761;28;20187;-87
2021/03/08 01:59:09;;;;;;;7.37;1.83;;;4.20;99.90;;;;;;4977148;28;20240;-90
2021/03/08 02:01:35;;;;;;;1.03;0.60;;;4.30;99.90;;;;;;4940579;28;20216;-86
2021/03/08 02:04:01;;;;;;;0.67;0.67;;;4.30;99.90;;;;;;4958937;28;21039;-87
2021/03/08 02:06:28;;;;;;;1.20;0.60;;;4.20;99.90;;;;;;4953123;28;20243;-90
2021/03/08 02:08:54;;;;;;;0.70;0.70;;;4.20;99.90;;;;;;4972950;28;20222;-89
2021/03/08 02:11:20;;;;;;;4.37;0.70;;;4.20;99.90;;;;;;4992620;28;20334;-90
2021/03/08 02:14:06;;;;;;;0.73;0.73;;;4.20;99.90;;;;;;4945574;28;20211;-87
2021/03/08 02:17:01;;;;;;;0.30;0.30;;;4.20;99.90;;;;;;4979769;28;20231;-87
2021/03/08 02:20:13;;;;;;;5.50;0.87;;;4.20;99.90;;;;;;4962050;28;20277;-86
2021/03/08 02:22:54;;;;;;;0.40;0.40;;;4.20;99.90;;;;;;4976222;28;20249;-91
2021/03/08 02:25:43;;;;;;;0.90;0.90;;;4.20;99.90;;;;;;4999944;28;20648;-90
2021/03/08 02:28:46;;;;;;;1.33;0.77;;;4.20;99.90;;;;;;4999918;28;20223;-89
2021/03/08 02:31:20;;;;;;;1.03;0.37;;;4.10;99.90;;;;;;4988235;28;20309;-87
2021/03/08 02:34:08;;;;;;;1.10;1.00;;;4.10;99.90;;;;;;4983033;28;20331;-91
2021/03/08 02:36:43;;;;;;;0.30;0.30;;;4.10;99.90;;;;;;4998429;28;20183;-89
2021/03/08 02:39:19;;;;;;;5.33;1.37;;;4.20;99.90;;;;;;5000547;28;20222;-92
2021/03/08 02:41:47;;;;;;;0.60;0.60;;;4.20;99.90;;;;;;4992898;28;20298;-91
2021/03/08 02:44:18;;;;;;;1.07;0.90;;;4.20;99.90;;;;;;5000365;28;20239;-88
2021/03/08 02:46:47;;;;;;;1.63;1.53;;;4.30;99.90;;;;;;4991175;28;20212;-92
2021/03/08 02:49:17;;;;;;;3.10;0.80;;;4.20;99.90;;;;;;4999546;28;20362;-87
2021/03/08 02:51:48;;;;;;;3.13;0.97;;;4.20;99.90;;;;;;4997395;28;21083;-87
2021/03/08 02:54:17;;;;;;;0.50;0.50;;;4.10;99.90;;;;;;4999785;28;20232;-89
2021/03/08 02:56:46;;;;;;;0.60;0.60;;;4.10;99.90;;;;;;4983294;28;20203;-90
2021/03/08 02:59:13;;;;;;;0.43;0.43;;;4.20;99.90;;;;;;4997732;28;20243;-91
2021/03/08 03:01:41;;;;;;;1.70;0.50;;;4.20;99.90;;;;;;4962178;28;20286;-91
2021/03/08 03:04:09;;;;;;;6.13;1.40;;;4.20;99.90;;;;;;4985658;28;20223;-89
2021/03/08 03:06:37;;;;;;;1.03;0.73;;;4.20;99.90;;;;;;4979457;28;20274;-88
2021/03/08 03:09:12;;;;;;;0.87;0.70;;;4.20;99.90;;;;;;4997441;28;20190;-87
2021/03/08 03:11:46;;;;;;;0.50;0.50;;;4.20;99.90;;;;;;5002492;28;21118;-92
2021/03/08 03:14:13;;;;;;;0.60;0.60;;;4.20;99.90;;;;;;4991839;28;20318;-88
2021/03/08 03:16:43;;;;;;;3.43;1.53;;;4.20;99.90;;;;;;4999312;28;20769;-87
2021/03/08 03:19:10;;;;;;;1.13;1.13;;;4.10;99.90;;;;;;4976237;28;20219;-91
2021/03/08 03:21:37;;;;;;;1.37;1.13;;;4.10;99.90;;;;;;4995625;28;20198;-91
2021/03/08 03:24:07;;;;;;;1.57;1.40;;;4.10;99.90;;;;;;4996088;28;20203;-87
2021/03/08 03:26:34;;;;;;;11.33;0.70;;;4.10;99.90;;;;;;4980660;28;20227;-89
2021/03/08 03:29:01;;;;;;;0.40;0.40;;;4.10;99.90;;;;;;4982324;28;20227;-86
2021/03/08 03:31:27;;;;;;;4.43;0.60;;;4.20;99.90;;;;;;4995908;28;20219;-87
2021/03/08 03:33:57;;;;;;;3.57;3.33;;;4.30;99.90;;;;;;4998456;28;20227;-87
2021/03/08 03:36:23;;;;;;;3.40;0.93;;;4.30;99.90;;;;;;4991678;28;20281;-89
2021/03/08 03:38:51;;;;;;;3.67;1.10;;;4.30;99.90;;;;;;4991866;28;20661;-87
2021/03/08 03:41:16;;;;;;;1.93;0.57;;;4.30;99.90;;;;;;4995738;28;20716;-87
2021/03/08 03:43:42;;;;;;;0.30;0.30;;;4.30;99.90;;;;;;4977105;28;20310;-92
2021/03/08 03:46:08;;;;;;;1.00;1.00;;;4.40;99.90;;;;;;4996798;28;20228;-89
2021/03/08 03:48:34;;;;;;;1.70;0.40;;;4.40;99.90;;;;;;4998650;28;21234;-89
2021/03/08 03:51:00;;;;;;;4.53;1.87;;;4.40;99.90;;;;;;4999961;28;20210;-87
2021/03/08 03:53:26;;;;;;;2.33;1.30;;;4.30;99.90;;;;;;4972510;28;20219;-91
2021/03/08 03:55:53;;;;;;;5.17;1.87;;;4.40;99.90;;;;;;4998472;28;20270;-88
2021/03/08 03:58:24;;;;;;;4.13;1.27;;;4.40;99.90;;;;;;4988014;28;20708;-86
2021/03/08 04:01:24;;;;;;;0.87;0.87;;;4.40;99.90;;;;;;5000268;28;20680;-86
2021/03/08 04:03:56;;;;;;;3.50;0.87;;;4.40;99.90;;;;;;4989999;28;20229;-90
2021/03/08 04:06:33;;;;;;;0.77;0.70;;;4.30;99.90;;;;;;5000325;28;20282;-89
2021/03/08 04:09:00;;;;;;;1.17;0.37;;;4.40;99.90;;;;;;5001342;28;20194;-90
2021/03/08 04:11:34;;;;;;;0.97;0.80;;;4.40;99.90;;;;;;4944502;28;20216;-90
2021/03/08 04:14:02;;;;;;;4.53;1.10;;;4.40;99.90;;;;;;4961551;28;20295;-87
2021/03/08 04:16:30;;;;;;;2.10;0.83;;;4.40;99.90;;;;;;4979054;28;20676;-87
2021/03/08 04:18:57;;;;;;;0.47;0.47;;;4.40;99.90;;;;;;4963827;28;20227;-87
2021/03/08 04:21:25;;;;;;;1.03;0.80;;;4.30;99.90;;;;;;4979680;28;20184;-86
2021/03/08 04:23:53;;;;;;;1.60;0.97;;;4.30;99.90;;;;;;4941948;28;20283;-87
2021/03/08 04:26:20;;;;;;;0.67;0.67;;;4.30;99.90;;;;;;4962682;28;20222;-88
2021/03/08 04:28:47;;;;;;;1.57;1.33;;;4.30;99.90;;;;;;4981379;28;20374;-88
2021/03/08 04:31:13;;;;;;;1.70;0.83;;;4.30;99.90;;;;;;4940880;28;20220;-86
2021/03/08 04:33:41;;;;;;;0.57;0.57;;;4.30;99.90;;;;;;4963910;28;20234;-87
2021/03/08 04:36:07;;;;;;;0.67;0.67;;;4.30;99.90;;;;;;4982778;28;20188;-88
2021/03/08 04:38:34;;;;;;;0.60;0.40;;;4.30;99.90;;;;;;4978805;28;20236;-91
2021/03/08 04:41:01;;;;;;;0.63;0.63;;;4.30;99.90;;;;;;4969678;28;20251;-86
2021/03/08 04:43:28;;;;;;;3.40;0.90;;;4.20;99.90;;;;;;4998042;28;20223;-86
2021/03/08 04:45:57;;;;;;;0.87;0.87;;;4.20;99.90;;;;;;4957605;28;20220;-87
2021/03/08 04:48:26;;;;;;;1.07;0.90;;;4.20;99.90;;;;;;4992618;28;20242;-86
2021/03/08 04:50:53;;;;;;;0.40;0.40;;;4.20;99.90;;;;;;5001867;28;20665;-87
2021/03/08 04:53:19;;;;;;;1.57;1.40;;;4.10;99.90;;;;;;4980899;28;20223;-87
2021/03/08 04:55:46;;;;;;;2.30;0.43;;;4.10;99.90;;;;;;4981522;28;20312;-86
2021/03/08 04:58:12;;;;;;;0.40;0.40;;;4.00;99.90;;;;;;4969924;28;20291;-86
2021/03/08 05:00:38;;;;;;;0.30;0.30;;;4.00;99.90;;;;;;4954876;28;20252;-86
2021/03/08 05:03:05;;;;;;;0.77;0.77;;;4.00;99.90;;;;;;4956874;28;20279;-90
2021/03/08 05:05:32;;;;;;;1.17;1.13;;;3.90;99.90;;;;;;4975442;28;20220;-89
2021/03/08 05:08:01;;;;;;;0.70;0.70;;;3.90;99.90;;;;;;4975913;28;20219;-87
2021/03/08 05:10:28;;;;;;;0.80;0.80;;;3.90;99.90;;;;;;4972712;28;20212;-86
2021/03/08 05:12:57;;;;;;;0.57;0.57;;;3.90;99.90;;;;;;4974600;28;20330;-84
2021/03/08 05:15:25;;;;;;;1.30;1.20;;;3.90;99.90;;;;;;4970643;28;20222;-87
2021/03/08 05:17:57;;;;;;;2.20;0.53;;;3.90;99.90;;;;;;4975084;28;20813;-85
2021/03/08 05:20:23;;;;;;;0.40;0.40;;;3.80;99.90;;;;;;4971200;28;20212;-84
2021/03/08 05:22:50;;;;;;;1.13;1.03;;;3.60;99.90;;;;;;4956333;28;20221;-84
2021/03/08 05:25:18;;;;;;;2.50;1.50;;;3.60;99.90;;;;;;4949990;28;20723;-84
2021/03/08 05:27:45;;;;;;;0.60;0.60;;;3.60;99.90;;;;;;4956354;28;20220;-86
2021/03/08 05:30:18;;;;;;;2.40;1.03;;;3.60;99.90;;;;;;4940038;28;20197;-85
2021/03/08 05:32:53;;;;;;;1.03;0.83;;;3.70;99.90;;;;;;4959229;28;20224;-84
2021/03/08 05:35:20;;;;;;;0.70;0.70;;;3.70;99.90;;;;;;4959062;28;20591;-87
2021/03/08 05:37:47;;;;;;;2.93;1.13;;;3.80;99.90;;;;;;4972569;28;20208;-90
2021/03/08 05:40:27;;;;;;;0.80;0.80;;;3.80;99.90;;;;;;4949581;28;20219;-85
2021/03/08 05:43:04;;;;;;;0.40;0.40;;;3.80;99.90;;;;;;4973484;28;20223;-87
2021/03/08 05:45:52;;;;;;;0.97;0.60;;;3.90;99.90;;;;;;4948615;28;20282;-85
2021/03/08 05:49:02;;;;;;;1.73;1.63;;;3.80;99.90;;;;;;4946997;28;20188;-86
2021/03/08 05:51:55;;;;;;;0.30;0.30;;;3.90;99.90;;;;;;4973314;28;20199;-85
2021/03/08 05:54:53;;;;;;;1.37;1.27;;;3.80;99.90;;;;;;4956729;28;20217;-85
2021/03/08 05:57:35;;;;;;;0.50;0.30;;;3.70;99.90;;;;;;4958256;28;20180;-84
2021/03/08 06:00:26;;;;;;;0.97;0.67;;;3.70;99.90;;;;;;4975838;28;20234;-85
2021/03/08 06:02:59;;;;;;;0.93;0.93;;;3.60;99.90;;;;;;4976269;28;20235;-87
2021/03/08 06:06:00;;;;;;;0.90;0.90;;;3.70;99.90;;;;;;4992321;28;20223;-87
2021/03/08 06:08:41;;;;;;;8.73;0.77;;;3.80;99.90;;;;;;4877033;29;20310;-86
2021/03/08 06:11:10;;;;;;;1.07;1.07;;;3.80;99.90;;;;;;4961816;28;20212;-88
2021/03/08 06:13:50;;;;;;;11.43;2.13;;;3.80;99.90;;;;;;4971205;28;20208;-86
2021/03/08 06:16:23;;;;;;;1.27;0.90;;;3.70;99.90;;;;;;4970932;28;20231;-85
2021/03/08 06:18:50;;;;;;;4.50;1.30;;;3.80;99.90;;;;;;4992391;28;20212;-85
2021/03/08 06:21:16;;;;;;;1.87;1.47;;;3.80;99.90;;;;;;4946631;28;20203;-85
2021/03/08 06:23:46;;;;;;;1.70;1.13;;;3.80;99.90;;;;;;4943836;28;20208;-87
2021/03/08 06:26:13;;;;;;;3.20;1.60;;;3.90;99.90;;;;;;4992057;28;20211;-86
2021/03/08 06:28:39;;;;;;;1.63;1.53;;;4.00;99.90;;;;;;4994007;28;20220;-85
2021/03/08 06:31:06;;;;;;;1.70;1.27;;;4.10;99.90;;;;;;4966753;28;20224;-86
2021/03/08 06:33:34;;;;;;;2.80;1.50;;;4.10;99.90;;;;;;4987875;28;20561;-86
2021/03/08 06:36:01;;;;;;;3.33;3.07;;;4.20;99.90;;;;;;4957050;28;20239;-90
2021/03/08 06:38:28;;;;;;;4.77;4.17;;;4.20;99.90;;;;;;4984771;28;20227;-92
2021/03/08 06:40:55;;;;;;;2.50;2.40;;;4.30;99.90;;;;;;4961462;28;21383;-89
2021/03/08 06:43:20;;;;;;;7.03;1.33;;;4.30;99.90;;;;;;4947360;28;20219;-86
2021/03/08 06:45:47;;;;;;;7.33;1.77;;;4.30;99.90;;;;;;4952333;28;20325;-87
2021/03/08 06:48:13;;;;;;;3.90;1.70;;;4.30;99.90;;;;;;4988514;28;20195;-88
2021/03/08 06:50:39;;;;;;;1.37;1.30;;;4.40;99.90;;;;;;4955304;28;20219;-88
2021/03/08 06:53:05;;;;;;;2.90;2.70;;;4.50;99.90;;;;;;4959306;28;20258;-89
2021/03/08 06:55:31;;;;;;;2.97;2.30;;;4.70;99.90;;;;;;4963820;28;20354;-88
2021/03/08 06:58:17;;;;;;;4.27;2.33;;;5.00;99.90;;;;;;4932346;28;20786;-90
2021/03/08 07:00:43;;;;;;;9.20;4.13;;;5.40;99.90;;;;;;4996363;28;20226;-90
2021/03/08 07:03:37;;;;;;;7.83;7.03;;;5.50;99.90;;;;;;4983951;28;20187;-86
2021/03/08 07:06:16;;;;;;;5.73;3.33;;;5.60;99.90;;;;;;4982150;28;20307;-89
2021/03/08 07:08:44;;;;;;;6.67;2.33;;;5.60;99.90;;;;;;4982527;28;20223;-89
2021/03/08 07:11:22;;;;;;;2.50;1.33;;;5.60;99.90;;;;;;4982555;28;20219;-87
2021/03/08 07:13:48;;;;;;;2.30;2.10;;;5.70;99.90;;;;;;4968729;28;20220;-87
2021/03/08 07:16:14;;;;;;;4.93;1.40;;;5.80;99.90;;;;;;4973918;28;20406;-86
2021/03/08 07:18:41;;;;;;;5.03;1.10;;;5.80;99.90;;;;;;4982373;28;20687;-89
2021/03/08 07:21:16;;;;;;;9.97;2.73;;;5.80;99.90;;;;;;4998062;28;20188;-85
2021/03/08 07:23:44;;;;;;;4.67;1.63;;;5.90;99.90;;;;;;4995721;28;20211;-84
2021/03/08 07:26:17;;;;;;;16.13;8.37;;;6.00;99.90;;;;;;4974066;28;20235;-86
2021/03/08 07:29:04;;;;;;;7.27;6.27;;;6.10;99.90;;;;;;4977336;28;20236;-85
2021/03/08 07:31:37;;;;;;;7.13;4.57;;;6.10;99.90;;;;;;4961407;28;20226;-85
2021/03/08 07:34:05;;;;;;;1.73;1.23;;;6.20;99.90;;;;;;4976543;28;21010;-85
2021/03/08 07:36:31;;;;;;;0.53;0.53;;;6.10;99.90;;;;;;4976389;28;20275;-85
2021/03/08 07:38:57;;;;;;;0.70;0.70;;;5.80;99.90;;;;;;4955528;28;20196;-88
2021/03/08 07:41:23;;;;;;;1.73;1.10;;;5.60;99.90;;;;;;4958249;28;20215;-84
2021/03/08 07:44:04;;;;;;;8.53;3.40;;;5.40;99.90;;;;;;4975055;28;20239;-84
2021/03/08 07:46:36;;;;;;;0.80;0.80;;;5.40;99.90;;;;;;4975663;28;20220;-85
2021/03/08 07:49:04;;;;;;;1.73;1.50;;;5.50;99.90;;;;;;4977265;28;20309;-85
2021/03/08 07:51:30;;;;;;;1.47;1.07;;;5.70;99.90;;;;;;4997125;28;20188;-88
2021/03/08 07:54:04;;;;;;;7.70;2.27;;;5.70;99.90;;;;;;4978349;28;20194;-88
2021/03/08 07:56:31;;;;;;;1.00;1.00;;;5.80;99.90;;;;;;5000225;28;20218;-85
2021/03/08 07:58:57;;;;;;;0.70;0.50;;;6.00;99.90;;;;;;4985824;28;20236;-84
2021/03/08 08:01:24;;;;;;;1.43;1.37;;;5.90;99.90;;;;;;4972635;28;20282;-85
2021/03/08 08:03:50;;;;;;;1.37;1.30;;;6.00;99.90;;;;;;4978384;28;20224;-87
2021/03/08 08:06:21;;;;;;;4.43;1.33;;;6.20;99.90;;;;;;4974649;28;20210;-85
2021/03/08 08:08:56;;;;;;;2.83;1.83;;;6.20;99.90;;;;;;4988937;28;20229;-86
2021/03/08 08:11:26;;;;;;;2.70;1.83;;;6.00;99.90;;;;;;4971783;28;20246;-89
2021/03/08 08:14:03;;;;;;;0.53;0.40;;;6.10;99.90;;;;;;4973694;28;20223;-85
2021/03/08 08:16:33;;;;;;;0.53;0.40;;;6.20;99.90;;;;;;4975493;28;20219;-87
2021/03/08 08:19:06;;;;;;;3.40;0.93;;;6.40;99.90;;;;;;4990086;28;20222;-89
2021/03/08 08:21:35;;;;;;;5.40;0.33;;;6.10;99.90;;;;;;4986613;28;20180;-88
2021/03/08 08:24:03;;;;;;;5.77;1.87;;;5.90;99.90;;;;;;4991898;28;20198;-89
2021/03/08 08:26:30;;;;;;;1.10;0.47;;;5.80;99.90;;;;;;4991405;28;20279;-88
2021/03/08 08:28:56;;;;;;;7.63;1.60;;;5.80;99.90;;;;;;4996987;28;20226;-88
2021/03/08 08:31:22;;;;;;;5.57;1.43;;;5.60;99.90;;;;;;4972960;28;20219;-89
2021/03/08 08:33:48;;;;;;;1.67;0.53;;;5.90;99.90;;;;;;4990204;28;20777;-88
2021/03/08 08:36:17;;;;;;;3.13;1.23;;;6.20;99.90;;;;;;4975300;28;20210;-89
2021/03/08 08:38:55;;;;;;;3.30;2.47;;;6.10;99.90;;;;;;4979151;28;20526;-88
2021/03/08 08:41:32;;;;;;;3.30;1.33;;;6.20;99.90;;;;;;4987925;28;20231;-89
2021/03/08 08:44:07;;;;;;;3.33;1.63;;;6.30;99.90;;;;;;4994175;28;20255;-90
2021/03/08 08:46:38;;;;;;;1.57;0.83;;;6.50;99.90;;;;;;4980103;28;20672;-87
2021/03/08 08:49:10;;;;;;;6.47;2.57;;;6.40;99.90;;;;;;4994704;28;20222;-88
2021/03/08 08:51:57;;;;;;;1.57;1.47;;;6.60;99.90;;;;;;5002172;28;20266;-90
2021/03/08 08:54:29;;;;;;;17.70;7.20;;;6.50;99.90;;;;;;4990168;28;20334;-86
2021/03/08 08:56:59;;;;;;;4.60;0.87;;;6.80;99.90;;;;;;4995984;28;20525;-90
2021/03/08 08:59:26;;;;;;;4.63;1.10;;;6.80;99.90;;;;;;4995663;28;20723;-87
2021/03/08 09:04:44;;;;;;;0.63;0.50;;;6.90;99.90;;;;;;4992140;28;20235;-85
2021/03/08 09:07:25;;;;;;;3.30;0.73;;;6.70;99.90;;;;;;4979935;28;20311;-85
2021/03/08 09:09:53;;;;;;;5.80;1.77;;;6.70;99.90;;;;;;4989936;28;20266;-87
2021/03/08 09:12:37;;;;;;;19.53;7.57;;;6.90;99.90;;;;;;4962941;28;20192;-87
2021/03/08 09:15:09;;;;;;;1.17;0.50;;;7.20;99.90;;;;;;4997872;28;20212;-90
2021/03/08 09:17:52;;;;;;;0.77;0.53;;;7.20;99.90;;;;;;4950204;28;20204;-85
2021/03/08 09:20:22;;;;;;;3.47;1.80;;;7.00;99.90;;;;;;4972691;28;20217;-88
2021/03/08 09:22:50;;;;;;;3.07;1.27;;;6.90;99.90;;;;;;4976741;28;20230;-88
2021/03/08 09:25:19;;;;;;;0.73;0.73;;;6.40;99.90;;;;;;4944870;28;20246;-85
2021/03/08 09:27:47;;;;;;;0.30;0.30;;;6.40;99.90;;;;;;4972667;28;20239;-85
2021/03/08 09:30:21;;;;;;;2.67;0.73;;;6.70;99.90;;;;;;4954454;28;20181;-86
2021/03/08 09:33:04;;;;;;;0.40;0.40;;;6.80;99.90;;;;;;4995893;28;20218;-86
2021/03/08 09:35:40;;;;;;;1.00;1.00;;;6.90;99.90;;;;;;4992622;28;20223;-88
2021/03/08 09:38:08;;;;;;;1.83;0.80;;;6.80;99.90;;;;;;4996882;28;21252;-89
2021/03/08 09:40:37;;;;;;;2.53;1.73;;;7.00;99.90;;;;;;4997146;28;20239;-87
2021/03/08 09:43:20;;;;;;;3.13;1.80;;;7.10;99.90;;;;;;4992849;28;20362;-88
2021/03/08 09:45:54;;;;;;;2.00;1.73;;;7.60;99.90;;;;;;4982583;28;20211;-86
2021/03/08 09:48:20;;;;;;;1.60;0.80;;;8.10;99.90;;;;;;4991682;28;20192;-88
2021/03/08 09:50:45;;;;;;;3.50;0.63;;;8.30;99.90;;;;;;4962480;28;20608;-87
2021/03/08 09:53:11;;;;;;;1.10;1.07;;;8.40;99.90;;;;;;4966695;28;20230;-86
2021/03/08 09:55:38;;;;;;;1.03;0.80;;;7.70;99.90;;;;;;4976367;28;20670;-87
2021/03/08 09:58:22;;;;;;;1.27;1.17;;;7.80;99.90;;;;;;4966306;28;20256;-88
2021/03/08 10:00:48;;;;;;;0.77;0.50;;;8.00;99.90;;;;;;4999194;28;20227;-87
2021/03/08 10:03:15;;;;;;;7.17;1.17;;;8.20;99.90;;;;;;4994252;28;20246;-87
2021/03/08 10:05:49;;;;;;;10.00;1.50;;;8.30;99.90;;;;;;4991868;28;20227;-90
2021/03/08 10:08:19;;;;;;;0.63;0.63;;;8.70;99.90;;;;;;4977930;28;21021;-90
2021/03/08 10:10:50;;;;;;;2.10;1.20;;;8.70;99.90;;;;;;4998692;28;20230;-89
2021/03/08 10:13:17;;;;;;;0.57;0.57;;;8.20;99.90;;;;;;4993040;28;20207;-87
2021/03/08 10:15:57;;;;;;;1.27;1.17;;;8.30;99.90;;;;;;4972727;28;20239;-90
2021/03/08 10:18:28;;;;;;;4.57;0.80;;;8.50;99.90;;;;;;4981441;28;20298;-92
2021/03/08 10:21:02;;;;;;;3.33;1.20;;;8.00;99.90;;;;;;5001652;28;20254;-90
2021/03/08 10:23:35;;;;;;;1.03;0.93;;;8.10;99.90;;;;;;4994847;28;20321;-86
2021/03/08 10:26:19;;;;;;;3.70;0.63;;;8.40;99.90;;;;;;4998376;28;20263;-85
2021/03/08 10:28:51;;;;;;;0.80;0.63;;;8.40;99.90;;;;;;4952528;28;20227;-87
2021/03/08 10:31:22;;;;;;;2.13;1.20;;;8.30;99.90;;;;;;4988681;28;20805;-89
2021/03/08 10:33:50;;;;;;;5.70;2.50;;;8.20;99.90;;;;;;4993845;28;20246;-90
2021/03/08 10:36:22;;;;;;;2.50;0.80;;;8.60;99.90;;;;;;4994144;28;20215;-88
2021/03/08 10:38:57;;;;;;;8.90;1.83;;;8.70;99.90;;;;;;4997982;28;20222;-86
2021/03/08 10:41:26;;;;;;;2.00;1.30;;;8.80;99.90;;;;;;4997906;28;20294;-87
2021/03/08 10:43:55;;;;;;;2.50;1.30;;;9.00;99.90;;;;;;4982307;28;20227;-87
2021/03/08 10:46:35;;;;;;;8.93;0.70;;;8.80;99.90;;;;;;4998896;28;20259;-88
2021/03/08 10:49:04;;;;;;;0.50;0.50;;;8.50;99.90;;;;;;4996937;28;20251;-86
2021/03/08 10:51:34;;;;;;;0.70;0.70;;;8.40;99.90;;;;;;4996507;28;20175;-87
2021/03/08 10:54:01;;;;;;;0.60;0.60;;;8.20;99.90;;;;;;4999720;28;20218;-87
2021/03/08 10:56:27;;;;;;;0.63;0.63;;;8.20;99.90;;;;;;4994450;28;20215;-86
2021/03/08 10:58:55;;;;;;;0.97;0.93;;;7.90;99.90;;;;;;4959418;28;20322;-86
2021/03/08 11:01:25;;;;;;;1.43;1.00;;;7.40;99.90;;;;;;4987120;28;20231;-87
2021/03/08 11:03:52;;;;;;;3.77;1.70;;;7.40;99.90;;;;;;4988340;28;20215;-86
2021/03/08 11:06:19;;;;;;;1.87;1.40;;;7.60;99.90;;;;;;4979113;28;20179;-86
2021/03/08 11:09:02;;;;;;;2.83;2.00;;;8.00;99.90;;;;;;4991397;28;20188;-86
2021/03/08 11:11:33;;;;;;;7.27;1.53;;;8.30;99.90;;;;;;4979064;28;20219;-86
2021/03/08 11:14:04;;;;;;;4.17;1.60;;;8.60;99.90;;;;;;4981417;28;20234;-88
2021/03/08 11:16:31;;;;;;;2.03;1.77;;;8.10;99.90;;;;;;4996759;28;20215;-88
2021/03/08 11:19:18;;;;;;;1.13;0.97;;;7.70;99.90;;;;;;4959472;28;20298;-86
2021/03/08 11:21:45;;;;;;;2.93;1.10;;;8.00;99.90;;;;;;4995581;28;20277;-88
2021/03/08 11:24:22;;;;;;;1.40;1.30;;;8.10;99.90;;;;;;4993720;28;20270;-88
2021/03/08 11:27:16;;;;;;;2.40;1.70;;;8.30;99.90;;;;;;4988857;28;20218;-87
2021/03/08 11:30:04;;;;;;;0.77;0.77;;;8.20;99.90;;;;;;4991671;28;21193;-89
2021/03/08 11:32:32;;;;;;;5.90;2.13;;;8.20;99.90;;;;;;4994087;28;20518;-87
2021/03/08 11:34:58;;;;;;;1.37;1.20;;;8.10;99.90;;;;;;4988566;28;20231;-87
2021/03/08 11:37:26;;;;;;;3.77;1.23;;;8.10;99.90;;;;;;4972099;28;20231;-86
2021/03/08 11:39:55;;;;;;;7.60;2.10;;;7.90;99.90;;;;;;4996344;28;20227;-86
2021/03/08 11:42:24;;;;;;;13.00;1.67;;;7.50;99.90;;;;;;4998325;28;20183;-86
2021/03/08 11:44:51;;;;;;;2.60;2.03;;;7.60;99.90;;;;;;4982340;28;20743;-88
2021/03/08 11:47:16;;;;;;;7.57;2.13;;;7.80;99.90;;;;;;4985851;28;20218;-88
2021/03/08 11:49:42;;;;;;;2.73;1.07;;;7.90;99.90;;;;;;4971787;28;20231;-89
2021/03/08 11:52:09;;;;;;;7.03;1.43;;;7.90;99.90;;;;;;4968531;28;20223;-88
2021/03/08 11:54:35;;;;;;;1.30;1.20;;;8.10;99.90;;;;;;4993287;28;20222;-88
2021/03/08 11:57:04;;;;;;;2.27;1.80;;;8.10;99.90;;;;;;4989082;28;20196;-87
2021/03/08 11:59:29;;;;;;;1.70;1.00;;;7.80;99.90;;;;;;4971394;28;20275;-87
2021/03/08 12:01:55;;;;;;;3.13;1.23;;;7.80;99.90;;;;;;4954879;28;20325;-88
2021/03/08 12:04:21;;;;;;;2.97;1.03;;;7.80;99.90;;;;;;4972133;28;20238;-86
2021/03/08 12:06:47;;;;;;;3.03;1.63;;;7.80;99.90;;;;;;4997942;28;20485;-88
2021/03/08 12:09:14;;;;;;;1.63;1.27;;;7.70;99.90;;;;;;4998010;28;21217;-90
2021/03/08 12:11:39;;;;;;;0.80;0.80;;;7.60;99.90;;;;;;4988566;28;20265;-87
2021/03/08 12:14:06;;;;;;;2.53;1.30;;;7.60;99.90;;;;;;4970487;28;20220;-88
2021/03/08 12:16:31;;;;;;;1.50;1.40;;;7.60;99.90;;;;;;4976607;28;20255;-87
2021/03/08 12:18:57;;;;;;;1.40;1.30;;;7.60;99.90;;;;;;4983932;28;20306;-88
2021/03/08 12:21:24;;;;;;;2.80;1.20;;;7.40;99.90;;;;;;4984433;28;20180;-87
2021/03/08 12:23:51;;;;;;;2.83;0.73;;;7.50;99.90;;;;;;5002126;28;20198;-87
2021/03/08 12:26:18;;;;;;;1.90;1.10;;;7.40;99.90;;;;;;4995272;28;20266;-90
2021/03/08 12:28:43;;;;;;;1.60;1.33;;;7.50;99.90;;;;;;4999167;28;20223;-88
2021/03/08 12:31:09;;;;;;;1.60;0.93;;;7.40;99.90;;;;;;4974845;28;20226;-88
2021/03/08 12:33:37;;;;;;;1.73;1.20;;;7.40;99.90;;;;;;4979044;28;20184;-88
2021/03/08 12:36:05;;;;;;;10.13;1.70;;;7.50;99.90;;;;;;4966134;28;20212;-88
2021/03/08 12:38:31;;;;;;;3.00;1.03;;;7.50;99.90;;;;;;4974987;28;20227;-89
2021/03/08 12:40:57;;;;;;;3.13;1.13;;;7.60;99.90;;;;;;4999030;28;20227;-88
2021/03/08 12:43:23;;;;;;;3.97;1.47;;;7.60;99.90;;;;;;4984658;28;20207;-89
2021/03/08 12:45:48;;;;;;;1.37;1.27;;;7.60;99.90;;;;;;4986552;28;20286;-89
2021/03/08 12:48:14;;;;;;;1.63;1.07;;;7.60;99.90;;;;;;5002486;28;20616;-88
2021/03/08 12:50:40;;;;;;;5.20;2.23;;;7.50;99.90;;;;;;4983063;28;20289;-90
2021/03/08 12:53:06;;;;;;;5.17;1.13;;;7.50;99.90;;;;;;4983209;28;20281;-89
2021/03/08 12:55:31;;;;;;;9.57;5.73;;;7.50;99.90;;;;;;4998464;28;20730;-89
2021/03/08 12:57:57;;;;;;;28.50;14.33;;;7.60;99.90;;;;;;4993052;28;20266;-90
2021/03/08 13:00:23;;;;;;;1.87;1.63;;;7.60;99.90;;;;;;4980738;28;20325;-90
2021/03/08 13:02:49;;;;;;;4.93;2.70;;;7.70;99.90;;;;;;4975592;28;20335;-89
2021/03/08 13:05:15;;;;;;;6.90;2.40;;;7.70;99.90;;;;;;4975792;28;20223;-91
2021/03/08 13:07:41;;;;;;;3.73;3.13;;;7.60;99.90;;;;;;4964421;28;20362;-91
2021/03/08 13:10:07;;;;;;;7.17;2.60;;;7.70;99.90;;;;;;4991448;28;20215;-90
2021/03/08 13:12:33;;;;;;;2.93;2.20;;;7.60;99.90;;;;;;4994140;28;20534;-89
2021/03/08 13:14:59;;;;;;;7.33;6.00;;;7.60;99.90;;;;;;4984765;28;20790;-88
2021/03/08 13:17:24;;;;;;;3.77;2.90;;;7.60;99.90;;;;;;4957265;28;20219;-90